createdAt,value
2023-02-18T00:01:40.310Z,14.60
2023-02-18T00:04:09.523Z,14.60
2023-02-18T00:06:36.735Z,14.60
2023-02-18T00:09:05.388Z,14.60
2023-02-18T00:11:36.495Z,14.60
2023-02-18T00:14:05.545Z,14.60
2023-02-18T00:16:32.232Z,14.60
2023-02-18T00:19:03.809Z,14.60
2023-02-18T00:21:32.061Z,14.60
2023-02-18T00:24:01.536Z,14.60
2023-02-18T00:26:34.387Z,14.60
2023-02-18T00:29:01.380Z,14.60
2023-02-18T00:31:36.526Z,14.60
2023-02-18T00:34:05.032Z,14.60
2023-02-18T00:36:32.034Z,14.60
2023-02-18T00:39:00.671Z,14.60
2023-02-18T00:41:31.910Z,14.50
2023-02-18T00:44:00.789Z,14.50
2023-02-18T00:46:30.084Z,14.50
2023-02-18T00:48:57.185Z,14.50
2023-02-18T00:51:25.462Z,14.50
2023-02-18T00:53:52.110Z,14.50
2023-02-18T00:56:19.175Z,14.50
2023-02-18T00:58:52.003Z,14.50
2023-02-18T01:01:19.168Z,14.50
2023-02-18T01:03:46.201Z,14.50
2023-02-18T01:06:16.438Z,14.50
2023-02-18T01:08:43.089Z,14.50
2023-02-18T01:11:13.386Z,14.50
2023-02-18T01:13:40.799Z,14.50
2023-02-18T01:16:17.237Z,14.50
2023-02-18T01:18:48.522Z,14.50
2023-02-18T01:21:15.818Z,14.50
2023-02-18T01:23:42.721Z,14.50
2023-02-18T01:26:13.378Z,14.40
2023-02-18T01:28:43.708Z,14.40
2023-02-18T01:31:14.957Z,14.40
2023-02-18T01:33:42.421Z,14.40
2023-02-18T01:36:11.054Z,14.30
2023-02-18T01:38:41.558Z,14.30
2023-02-18T01:41:08.242Z,14.30
2023-02-18T01:43:38.209Z,14.20
2023-02-18T01:46:09.037Z,14.20
2023-02-18T01:48:40.707Z,14.20
2023-02-18T01:51:21.641Z,14.20
2023-02-18T01:54:09.619Z,14.10
2023-02-18T01:56:47.137Z,14.10
2023-02-18T01:59:20.369Z,14.10
2023-02-18T02:01:48.287Z,14.00
2023-02-18T02:04:17.806Z,14.10
2023-02-18T02:06:45.573Z,14.00
2023-02-18T02:09:15.759Z,14.00
2023-02-18T02:12:19.834Z,14.00
2023-02-18T02:15:08.266Z,13.90
2023-02-18T02:17:55.071Z,13.90
2023-02-18T02:20:53.463Z,13.90
2023-02-18T02:23:41.701Z,13.90
2023-02-18T02:26:57.934Z,13.90
2023-02-18T02:29:51.181Z,13.90
2023-02-18T02:32:38.978Z,13.90
2023-02-18T02:35:29.317Z,13.90
2023-02-18T02:38:04.076Z,13.80
2023-02-18T02:40:44.179Z,13.80
2023-02-18T02:43:31.534Z,13.80
2023-02-18T02:46:05.120Z,13.80
2023-02-18T02:48:47.029Z,13.80
2023-02-18T02:51:23.661Z,13.90
2023-02-18T02:53:50.251Z,13.90
2023-02-18T02:56:20.288Z,13.90
2023-02-18T02:58:59.297Z,13.90
2023-02-18T03:01:53.901Z,13.90
2023-02-18T03:04:30.590Z,13.90
2023-02-18T03:07:19.469Z,14.00
2023-02-18T03:10:04.610Z,14.00
2023-02-18T03:13:02.200Z,14.00
2023-02-18T03:15:47.109Z,14.00
2023-02-18T03:18:36.592Z,14.00
2023-02-18T03:21:08.777Z,14.00
2023-02-18T03:23:48.721Z,14.00
2023-02-18T03:26:18.578Z,14.00
2023-02-18T03:28:51.097Z,14.00
2023-02-18T03:31:21.139Z,14.00
2023-02-18T03:34:05.057Z,14.00
2023-02-18T03:36:35.410Z,14.00
2023-02-18T03:39:21.350Z,14.00
2023-02-18T03:41:51.138Z,14.00
2023-02-18T03:44:22.280Z,14.00
2023-02-18T03:46:48.897Z,14.00
2023-02-18T03:49:15.976Z,14.00
2023-02-18T03:51:50.550Z,14.00
2023-02-18T03:54:17.352Z,14.00
2023-02-18T03:56:44.369Z,14.00
2023-02-18T03:59:18.140Z,14.00
2023-02-18T04:01:47.301Z,14.00
2023-02-18T04:04:21.236Z,14.00
2023-02-18T04:06:50.066Z,14.00
2023-02-18T04:09:18.865Z,13.90
2023-02-18T04:11:45.456Z,13.90
2023-02-18T04:14:14.442Z,13.90
2023-02-18T04:16:41.539Z,13.80
2023-02-18T04:19:10.658Z,13.80
2023-02-18T04:21:39.687Z,13.80
2023-02-18T04:24:06.268Z,13.80
2023-02-18T04:26:35.738Z,13.80
2023-02-18T04:29:02.356Z,13.70
2023-02-18T04:31:29.110Z,13.70
2023-02-18T04:33:58.500Z,13.70
2023-02-18T04:36:28.009Z,13.60
2023-02-18T04:38:54.630Z,13.70
2023-02-18T04:41:21.268Z,13.60
2023-02-18T04:43:47.884Z,13.60
2023-02-18T04:46:14.503Z,13.60
2023-02-18T04:48:42.498Z,13.60
2023-02-18T04:51:13.065Z,13.60
2023-02-18T04:53:41.890Z,13.60
2023-02-18T04:56:10.149Z,13.50
2023-02-18T04:58:38.891Z,13.50
2023-02-18T05:01:07.849Z,13.50
2023-02-18T05:03:36.650Z,13.50
2023-02-18T05:06:08.305Z,13.50
2023-02-18T05:08:36.055Z,13.50
2023-02-18T05:11:06.541Z,13.50
2023-02-18T05:13:33.079Z,13.50
2023-02-18T05:16:00.164Z,13.50
2023-02-18T05:18:29.052Z,13.50
2023-02-18T05:20:55.603Z,13.50
2023-02-18T05:23:24.377Z,13.50
2023-02-18T05:25:52.462Z,13.50
2023-02-18T05:28:19.071Z,13.50
2023-02-18T05:30:47.869Z,13.50
2023-02-18T05:33:14.623Z,13.40
2023-02-18T05:35:45.524Z,13.50
2023-02-18T05:38:14.498Z,13.40
2023-02-18T05:40:41.076Z,13.40
2023-02-18T05:43:07.923Z,13.40
2023-02-18T05:45:35.284Z,13.40
2023-02-18T05:48:01.907Z,13.40
2023-02-18T05:50:28.606Z,13.40
2023-02-18T05:52:55.143Z,13.40
2023-02-18T05:55:21.847Z,13.40
2023-02-18T05:57:48.606Z,13.40
2023-02-18T06:00:18.557Z,13.30
2023-02-18T06:02:48.332Z,13.40
2023-02-18T06:05:18.092Z,13.30
2023-02-18T06:07:46.840Z,13.40
2023-02-18T06:10:13.520Z,13.30
2023-02-18T06:12:40.118Z,13.40
2023-02-18T06:15:07.357Z,13.40
2023-02-18T06:17:33.926Z,13.40
2023-02-18T06:20:00.501Z,13.40
2023-02-18T06:22:34.369Z,13.40
2023-02-18T06:25:03.843Z,13.40
2023-02-18T06:27:30.539Z,13.40
2023-02-18T06:29:57.408Z,13.40
2023-02-18T06:32:26.176Z,13.40
2023-02-18T06:34:52.832Z,13.40
2023-02-18T06:37:19.485Z,13.40
2023-02-18T06:39:46.312Z,13.40
2023-02-18T06:42:12.913Z,13.40
2023-02-18T06:44:40.754Z,13.40
2023-02-18T06:47:07.438Z,13.50
2023-02-18T06:49:36.687Z,13.50
2023-02-18T06:52:05.614Z,13.50
2023-02-18T06:54:38.809Z,13.50
2023-02-18T06:57:10.311Z,13.50
2023-02-18T06:59:38.962Z,13.50
2023-02-18T07:02:06.114Z,13.50
2023-02-18T07:04:32.697Z,13.50
2023-02-18T07:07:02.102Z,13.50
2023-02-18T07:09:31.931Z,13.50
2023-02-18T07:11:58.531Z,13.50
2023-02-18T07:14:25.144Z,13.50
2023-02-18T07:16:51.733Z,13.50
2023-02-18T07:19:21.998Z,13.50
2023-02-18T07:21:48.570Z,13.50
2023-02-18T07:24:15.158Z,13.40
2023-02-18T07:26:41.712Z,13.40
2023-02-18T07:29:08.982Z,13.40
2023-02-18T07:31:37.715Z,13.30
2023-02-18T07:34:04.301Z,13.30
2023-02-18T07:36:30.878Z,13.30
2023-02-18T07:38:58.644Z,13.30
2023-02-18T07:41:25.256Z,13.20
2023-02-18T07:43:51.821Z,13.20
2023-02-18T07:46:22.141Z,13.20
2023-02-18T07:48:48.762Z,13.20
2023-02-18T07:51:15.331Z,13.10
2023-02-18T07:53:42.381Z,13.10
2023-02-18T07:56:09.652Z,13.10
2023-02-18T07:58:40.218Z,13.00
2023-02-18T08:01:09.168Z,13.00
2023-02-18T08:03:35.856Z,13.00
2023-02-18T08:06:04.532Z,13.00
2023-02-18T08:08:32.378Z,13.00
2023-02-18T08:11:18.093Z,13.00
2023-02-18T08:13:47.193Z,13.00
2023-02-18T08:16:15.328Z,12.90
2023-02-18T08:18:42.072Z,12.90
2023-02-18T08:21:08.832Z,13.00
2023-02-18T08:23:35.419Z,13.00
2023-02-18T08:26:02.150Z,12.90
2023-02-18T08:28:28.892Z,12.90
2023-02-18T08:30:55.520Z,13.00
2023-02-18T08:33:25.502Z,13.00
2023-02-18T08:35:55.989Z,12.90
2023-02-18T08:38:23.965Z,13.00
2023-02-18T08:40:51.878Z,13.00
2023-02-18T08:43:18.598Z,13.00
2023-02-18T08:45:45.323Z,13.10
2023-02-18T08:48:19.308Z,13.10
2023-02-18T08:50:50.790Z,13.10
2023-02-18T08:53:18.074Z,13.10
2023-02-18T08:55:44.930Z,13.20
2023-02-18T08:58:11.893Z,13.20
2023-02-18T09:00:40.979Z,13.30
2023-02-18T09:03:07.858Z,13.30
2023-02-18T09:05:34.459Z,13.40
2023-02-18T09:08:01.050Z,13.40
2023-02-18T09:10:27.672Z,13.50
2023-02-18T09:12:54.271Z,13.50
2023-02-18T09:15:20.858Z,13.60
2023-02-18T09:17:47.483Z,13.60
2023-02-18T09:20:14.322Z,13.60
2023-02-18T09:22:40.916Z,13.70
2023-02-18T09:25:09.568Z,13.70
2023-02-18T09:27:36.517Z,13.70
2023-02-18T09:30:03.921Z,13.80
2023-02-18T09:32:34.994Z,13.80
2023-02-18T09:35:07.563Z,13.90
2023-02-18T09:37:34.165Z,13.90
2023-02-18T09:40:05.585Z,14.00
2023-02-18T09:42:40.447Z,14.00
2023-02-18T09:45:13.300Z,14.00
2023-02-18T09:47:42.509Z,14.10
2023-02-18T09:50:21.271Z,14.10
2023-02-18T09:52:48.474Z,14.10
2023-02-18T09:55:25.424Z,14.10
2023-02-18T09:58:00.374Z,14.20
2023-02-18T10:00:33.800Z,14.20
2023-02-18T10:03:05.273Z,14.20
2023-02-18T10:05:34.165Z,14.20
2023-02-18T10:08:06.972Z,14.20
2023-02-18T10:10:44.150Z,14.20
2023-02-18T10:13:27.147Z,14.20
2023-02-18T10:15:53.915Z,14.20
2023-02-18T10:18:23.338Z,14.20
2023-02-18T10:20:52.371Z,14.20
2023-02-18T10:23:21.183Z,14.10
2023-02-18T10:25:49.083Z,14.10
2023-02-18T10:28:24.625Z,14.10
2023-02-18T10:31:05.018Z,14.00
2023-02-18T10:33:34.663Z,13.90
2023-02-18T10:36:29.977Z,13.80
2023-02-18T10:39:24.263Z,13.70
2023-02-18T10:42:23.325Z,13.60
2023-02-18T10:45:20.981Z,13.50
2023-02-18T10:47:50.644Z,13.40
2023-02-18T10:50:39.156Z,13.30
2023-02-18T10:53:30.885Z,13.30
2023-02-18T10:56:00.450Z,13.20
2023-02-18T10:58:32.425Z,13.20
2023-02-18T11:01:04.816Z,13.20
2023-02-18T11:03:42.609Z,13.20
2023-02-18T11:06:16.773Z,13.10
2023-02-18T11:08:45.844Z,13.10
2023-02-18T11:11:24.423Z,13.10
2023-02-18T11:13:56.150Z,13.10
2023-02-18T11:16:24.469Z,13.10
2023-02-18T11:18:51.228Z,13.10
2023-02-18T11:21:39.098Z,13.10
2023-02-18T11:24:20.280Z,13.10
2023-02-18T11:26:47.014Z,13.10
2023-02-18T11:29:35.287Z,13.00
2023-02-18T11:32:04.432Z,13.00
2023-02-18T11:34:33.023Z,13.00
2023-02-18T11:37:20.804Z,13.00
2023-02-18T11:39:53.526Z,13.00
2023-02-18T11:42:24.564Z,13.00
2023-02-18T11:44:57.090Z,13.00
2023-02-18T11:47:32.518Z,13.10
2023-02-18T11:50:22.592Z,13.10
2023-02-18T11:52:51.058Z,13.10
2023-02-18T11:55:32.750Z,13.10
2023-02-18T11:58:06.207Z,13.20
2023-02-18T12:00:38.398Z,13.20
2023-02-18T12:03:21.083Z,13.20
2023-02-18T12:05:48.511Z,13.20
2023-02-18T12:08:23.944Z,13.20
2023-02-18T12:10:53.733Z,13.20
2023-02-18T12:13:39.173Z,13.20
2023-02-18T12:16:26.534Z,13.20
2023-02-18T12:19:13.844Z,13.20
2023-02-18T12:21:55.751Z,13.30
2023-02-18T12:25:04.148Z,13.30
2023-02-18T12:27:43.040Z,13.20
2023-02-18T12:30:49.171Z,13.20
2023-02-18T12:33:44.354Z,13.20
2023-02-18T12:36:24.672Z,13.20
2023-02-18T12:38:57.083Z,13.20
2023-02-18T12:41:23.570Z,13.20
2023-02-18T12:44:12.014Z,13.30
2023-02-18T12:47:06.406Z,13.20
2023-02-18T12:49:41.900Z,13.20
2023-02-18T12:52:17.435Z,13.20
2023-02-18T12:54:59.151Z,13.20
2023-02-18T12:58:05.773Z,13.20
2023-02-18T13:00:57.284Z,13.20
2023-02-18T13:03:26.709Z,13.20
2023-02-18T13:06:52.335Z,13.20
2023-02-18T13:09:43.424Z,13.20
2023-02-18T13:12:24.829Z,13.20
2023-02-18T13:15:37.511Z,13.20
2023-02-18T13:18:11.378Z,13.20
2023-02-18T13:20:52.620Z,13.30
2023-02-18T13:23:25.894Z,13.30
2023-02-18T13:26:01.047Z,13.30
2023-02-18T13:28:45.177Z,13.30
2023-02-18T13:31:17.401Z,13.30
2023-02-18T13:34:00.159Z,13.20
2023-02-18T13:36:36.269Z,13.40
2023-02-18T13:39:20.289Z,13.40
2023-02-18T13:41:49.500Z,13.40
2023-02-18T13:44:22.225Z,13.30
2023-02-18T13:46:52.873Z,13.30
2023-02-18T13:49:25.386Z,13.40
2023-02-18T13:51:57.607Z,13.30
2023-02-18T13:54:28.670Z,13.40
2023-02-18T13:57:00.039Z,13.40
2023-02-18T13:59:34.198Z,13.40
2023-02-18T14:02:19.493Z,13.40
2023-02-18T14:04:46.199Z,13.40
2023-02-18T14:07:27.486Z,13.40
2023-02-18T14:09:57.322Z,13.40
2023-02-18T14:12:38.890Z,13.40
2023-02-18T14:15:20.766Z,13.40
2023-02-18T14:18:08.688Z,13.40
2023-02-18T14:20:38.316Z,13.40
2023-02-18T14:23:19.956Z,13.40
2023-02-18T14:25:57.017Z,13.50
2023-02-18T14:28:36.052Z,13.50
2023-02-18T14:31:12.190Z,13.50
2023-02-18T14:34:02.070Z,13.50
2023-02-18T14:36:40.333Z,13.50
2023-02-18T14:39:57.453Z,13.50
2023-02-18T14:42:51.780Z,13.50
2023-02-18T14:45:45.656Z,13.50
2023-02-18T14:48:27.365Z,13.50
2023-02-18T14:50:56.367Z,13.50
2023-02-18T14:53:26.075Z,13.50
2023-02-18T14:55:59.058Z,13.50
2023-02-18T14:58:29.627Z,13.50
2023-02-18T15:00:56.595Z,13.50
2023-02-18T15:03:23.638Z,13.50
2023-02-18T15:05:51.302Z,13.50
2023-02-18T15:08:23.078Z,13.50
2023-02-18T15:11:04.472Z,13.50
2023-02-18T15:13:34.749Z,13.60
2023-02-18T15:16:09.957Z,13.60
2023-02-18T15:18:55.478Z,13.60
2023-02-18T15:21:25.993Z,13.60
2023-02-18T15:23:54.741Z,13.60
2023-02-18T15:26:21.656Z,13.60
2023-02-18T15:29:00.064Z,13.60
2023-02-18T15:31:28.963Z,13.60
2023-02-18T15:33:55.809Z,13.60
2023-02-18T15:36:25.169Z,13.60
2023-02-18T15:38:51.817Z,13.60
2023-02-18T15:41:20.894Z,13.60
2023-02-18T15:44:03.446Z,13.60
2023-02-18T15:46:30.368Z,13.60
2023-02-18T15:48:58.864Z,13.70
2023-02-18T15:51:29.796Z,13.70
2023-02-18T15:53:59.265Z,13.70
2023-02-18T15:56:36.038Z,13.70
2023-02-18T15:59:30.490Z,13.70
2023-02-18T16:02:09.837Z,13.80
2023-02-18T16:04:41.320Z,13.80
2023-02-18T16:07:28.128Z,13.80
2023-02-18T16:10:20.068Z,13.80
2023-02-18T16:12:50.878Z,13.80
2023-02-18T16:15:26.122Z,13.80
2023-02-18T16:17:53.045Z,13.80
2023-02-18T16:20:30.087Z,13.80
2023-02-18T16:23:01.772Z,13.80
2023-02-18T16:25:45.433Z,13.80
2023-02-18T16:28:32.451Z,13.80
2023-02-18T16:30:59.050Z,13.80
2023-02-18T16:33:25.656Z,13.80
2023-02-18T16:35:52.361Z,13.80
2023-02-18T16:38:21.760Z,13.80
2023-02-18T16:40:49.440Z,13.80
2023-02-18T16:43:22.222Z,13.80
2023-02-18T16:45:57.871Z,13.80
2023-02-18T16:48:41.178Z,13.80
2023-02-18T16:51:13.860Z,13.80
2023-02-18T16:53:40.568Z,13.80
2023-02-18T16:56:14.916Z,13.80
2023-02-18T16:58:42.029Z,13.70
2023-02-18T17:01:21.049Z,13.70
2023-02-18T17:03:48.978Z,13.70
2023-02-18T17:06:16.222Z,13.70
2023-02-18T17:08:42.850Z,13.70
2023-02-18T17:11:35.453Z,13.70
2023-02-18T17:14:05.027Z,13.60
2023-02-18T17:16:32.028Z,13.70
2023-02-18T17:19:00.598Z,13.70
2023-02-18T17:21:27.232Z,13.60
2023-02-18T17:23:54.156Z,13.60
2023-02-18T17:26:24.518Z,13.60
2023-02-18T17:28:52.407Z,13.60
2023-02-18T17:31:24.055Z,13.60
2023-02-18T17:33:50.853Z,13.60
2023-02-18T17:36:17.555Z,13.60
2023-02-18T17:38:44.403Z,13.50
2023-02-18T17:41:13.238Z,13.50
2023-02-18T17:43:40.247Z,13.50
2023-02-18T17:46:12.065Z,13.50
2023-02-18T17:48:39.363Z,13.50
2023-02-18T17:51:07.442Z,13.50
2023-02-18T17:53:34.748Z,13.50
2023-02-18T17:56:01.494Z,13.50
2023-02-18T17:58:28.071Z,13.50
2023-02-18T18:00:57.004Z,13.50
2023-02-18T18:03:23.638Z,13.50
2023-02-18T18:05:51.993Z,13.50
2023-02-18T18:08:19.209Z,13.50
2023-02-18T18:10:59.078Z,13.50
2023-02-18T18:13:28.137Z,13.50
2023-02-18T18:15:57.486Z,13.50
2023-02-18T18:18:25.325Z,13.50
2023-02-18T18:20:54.193Z,13.50
2023-02-18T18:23:24.332Z,13.50
2023-02-18T18:25:53.733Z,13.50
2023-02-18T18:28:21.715Z,13.40
2023-02-18T18:30:51.057Z,13.40
2023-02-18T18:33:29.289Z,13.40
2023-02-18T18:35:59.696Z,13.40
2023-02-18T18:38:29.689Z,13.40
2023-02-18T18:40:58.393Z,13.40
2023-02-18T18:43:32.746Z,13.40
2023-02-18T18:46:00.382Z,13.40
2023-02-18T18:48:29.514Z,13.40
2023-02-18T18:51:02.581Z,13.40
2023-02-18T18:53:32.463Z,13.40
2023-02-18T18:56:08.103Z,13.40
2023-02-18T18:58:34.734Z,13.40
2023-02-18T19:01:06.439Z,13.40
2023-02-18T19:03:35.201Z,13.40
2023-02-18T19:06:05.739Z,13.40
2023-02-18T19:08:33.215Z,13.40
2023-02-18T19:11:03.752Z,13.40
2023-02-18T19:13:35.602Z,13.40
2023-02-18T19:16:33.282Z,13.40
2023-02-18T19:19:02.634Z,13.50
2023-02-18T19:21:29.222Z,13.50
2023-02-18T19:23:55.848Z,13.50
2023-02-18T19:26:24.148Z,13.40
2023-02-18T19:28:51.955Z,13.40
2023-02-18T19:31:23.863Z,13.40
2023-02-18T19:33:53.198Z,13.50
2023-02-18T19:36:19.869Z,13.40
2023-02-18T19:38:46.631Z,13.40
2023-02-18T19:41:19.392Z,13.50
2023-02-18T19:43:48.698Z,13.50
2023-02-18T19:46:19.625Z,13.50
2023-02-18T19:48:52.506Z,13.50
2023-02-18T19:51:23.023Z,13.50
2023-02-18T19:53:54.340Z,13.50
2023-02-18T19:56:21.286Z,13.50
2023-02-18T19:58:47.865Z,13.50
2023-02-18T20:01:15.864Z,13.50
2023-02-18T20:03:43.402Z,13.50
2023-02-18T20:06:20.625Z,13.50
2023-02-18T20:08:50.070Z,13.50
2023-02-18T20:11:19.266Z,13.50
2023-02-18T20:13:47.756Z,13.50
2023-02-18T20:16:17.240Z,13.50
2023-02-18T20:18:48.246Z,13.50
2023-02-18T20:21:17.228Z,13.50
2023-02-18T20:23:43.766Z,13.50
2023-02-18T20:26:14.541Z,13.50
2023-02-18T20:28:41.351Z,13.50
2023-02-18T20:31:12.877Z,13.50
2023-02-18T20:33:42.059Z,13.50
2023-02-18T20:36:09.490Z,13.50
2023-02-18T20:38:37.948Z,13.50
2023-02-18T20:41:14.156Z,13.50
2023-02-18T20:43:41.398Z,13.50
2023-02-18T20:46:11.491Z,13.50
2023-02-18T20:48:38.305Z,13.50
2023-02-18T20:51:06.045Z,13.50
2023-02-18T20:53:34.401Z,13.50
2023-02-18T20:56:07.278Z,13.50
2023-02-18T20:58:36.918Z,13.50
2023-02-18T21:01:13.437Z,13.50
2023-02-18T21:03:49.383Z,13.50
2023-02-18T21:06:23.296Z,13.50
2023-02-18T21:08:55.765Z,13.50
2023-02-18T21:11:26.631Z,13.50
2023-02-18T21:13:56.973Z,13.50
2023-02-18T21:16:28.762Z,13.50
2023-02-18T21:19:00.484Z,13.50
2023-02-18T21:21:29.566Z,13.50
2023-02-18T21:23:56.228Z,13.50
2023-02-18T21:26:25.612Z,13.50
2023-02-18T21:28:55.145Z,13.40
2023-02-18T21:31:30.963Z,13.50
2023-02-18T21:33:58.246Z,13.50
2023-02-18T21:36:25.623Z,13.50
2023-02-18T21:38:56.281Z,13.50
2023-02-18T21:41:24.263Z,13.50
2023-02-18T21:43:53.527Z,13.50
2023-02-18T21:46:25.707Z,13.40
2023-02-18T21:49:02.647Z,13.50
2023-02-18T21:51:54.577Z,13.40
2023-02-18T21:54:27.436Z,13.50
2023-02-18T21:56:55.241Z,13.50
2023-02-18T21:59:29.001Z,13.50
2023-02-18T22:01:57.210Z,13.50
2023-02-18T22:04:32.587Z,13.50
2023-02-18T22:07:03.211Z,13.40
2023-02-18T22:09:35.970Z,13.40
2023-02-18T22:12:04.207Z,13.40
2023-02-18T22:14:34.545Z,13.40
2023-02-18T22:17:03.590Z,13.40
2023-02-18T22:19:30.262Z,13.40
2023-02-18T22:22:04.402Z,13.40
2023-02-18T22:24:31.742Z,13.40
2023-02-18T22:27:02.099Z,13.30
2023-02-18T22:29:31.497Z,13.30
2023-02-18T22:31:58.206Z,13.30
2023-02-18T22:34:26.106Z,13.30
2023-02-18T22:36:56.455Z,13.30
2023-02-18T22:39:26.341Z,13.30
2023-02-18T22:41:52.963Z,13.30
2023-02-18T22:44:20.142Z,13.30
2023-02-18T22:46:46.728Z,13.30
2023-02-18T22:49:16.182Z,13.30
2023-02-18T22:51:44.215Z,13.30
2023-02-18T22:54:16.325Z,13.30
2023-02-18T22:56:46.393Z,13.30
2023-02-18T22:59:16.292Z,13.30
2023-02-18T23:01:48.781Z,13.30
2023-02-18T23:04:19.163Z,13.30
2023-02-18T23:06:46.606Z,13.30
2023-02-18T23:09:16.372Z,13.30
2023-02-18T23:11:42.966Z,13.30
2023-02-18T23:14:20.410Z,13.30
2023-02-18T23:17:09.675Z,13.30
2023-02-18T23:19:42.726Z,13.30
2023-02-18T23:22:15.885Z,13.30
2023-02-18T23:24:44.321Z,13.30
2023-02-18T23:27:13.677Z,13.30
2023-02-18T23:29:42.654Z,13.30
2023-02-18T23:32:10.091Z,13.30
2023-02-18T23:34:39.141Z,13.30
2023-02-18T23:37:05.917Z,13.30
2023-02-18T23:39:32.758Z,13.30
2023-02-18T23:42:02.106Z,13.30
2023-02-18T23:44:29.194Z,13.30
2023-02-18T23:46:55.923Z,13.30
2023-02-18T23:49:27.091Z,13.30
2023-02-18T23:51:55.785Z,13.30
2023-02-18T23:54:24.105Z,13.30
2023-02-18T23:56:53.433Z,13.30
2023-02-18T23:59:22.699Z,13.30
